createdAt,value
2018-02-14T00:00:42.554Z,12.63
2018-02-14T00:03:10.128Z,11.57
2018-02-14T00:05:37.870Z,10.97
2018-02-14T00:08:05.345Z,11.17
2018-02-14T00:10:32.932Z,11.97
2018-02-14T00:13:00.528Z,11.23
2018-02-14T00:15:28.063Z,12.40
2018-02-14T00:17:55.607Z,13.17
2018-02-14T00:20:23.559Z,10.33
2018-02-14T00:22:51.125Z,9.43
2018-02-14T00:25:18.663Z,12.07
2018-02-14T00:27:46.210Z,10.03
2018-02-14T00:30:13.740Z,11.03
2018-02-14T00:32:41.271Z,10.87
2018-02-14T00:35:08.890Z,13.20
2018-02-14T00:37:36.476Z,10.83
2018-02-14T00:40:04.008Z,10.20
2018-02-14T00:42:31.622Z,10.13
2018-02-14T00:44:59.188Z,9.70
2018-02-14T00:47:27.524Z,10.67
2018-02-14T00:49:55.120Z,10.27
2018-02-14T00:52:22.665Z,11.43
2018-02-14T00:54:50.236Z,9.40
2018-02-14T00:57:18.593Z,13.20
2018-02-14T00:59:46.924Z,8.93
2018-02-14T01:02:14.496Z,7.83
2018-02-14T01:04:42.816Z,9.93
2018-02-14T01:07:10.318Z,8.17
2018-02-14T01:09:38.606Z,11.40
2018-02-14T01:12:06.419Z,10.07
2018-02-14T01:14:33.963Z,9.47
2018-02-14T01:17:01.585Z,8.80
2018-02-14T01:19:36.282Z,10.03
2018-02-14T01:22:03.814Z,11.70
2018-02-14T01:24:31.346Z,9.90
2018-02-14T01:26:58.941Z,9.47
2018-02-14T01:29:27.242Z,8.90
2018-02-14T01:31:54.775Z,11.90
2018-02-14T01:34:22.339Z,9.17
2018-02-14T01:36:49.912Z,9.10
2018-02-14T01:39:17.486Z,9.27
2018-02-14T01:41:45.093Z,9.50
2018-02-14T01:44:12.667Z,10.70
2018-02-14T01:46:40.978Z,11.87
2018-02-14T01:49:08.717Z,9.23
2018-02-14T01:51:36.276Z,9.80
2018-02-14T01:54:03.753Z,14.73
2018-02-14T01:56:31.437Z,12.33
2018-02-14T01:58:59.008Z,9.70
2018-02-14T02:01:26.580Z,12.10
2018-02-14T02:03:54.548Z,11.50
2018-02-14T02:06:22.860Z,12.20
2018-02-14T02:08:50.402Z,12.33
2018-02-14T02:11:17.967Z,10.70
2018-02-14T02:13:45.507Z,10.67
2018-02-14T02:16:13.830Z,10.97
2018-02-14T02:18:41.423Z,12.80
2018-02-14T02:21:09.022Z,10.47
2018-02-14T02:23:36.609Z,11.97
2018-02-14T02:26:04.191Z,10.97
2018-02-14T02:28:32.525Z,11.70
2018-02-14T02:31:00.093Z,12.77
2018-02-14T02:33:28.615Z,10.60
2018-02-14T02:35:56.159Z,11.17
2018-02-14T02:38:23.733Z,10.77
2018-02-14T02:40:52.308Z,11.90
2018-02-14T02:43:20.648Z,10.10
2018-02-14T02:45:48.187Z,12.67
2018-02-14T02:48:15.887Z,9.60
2018-02-14T02:50:43.422Z,13.73
2018-02-14T02:53:10.994Z,11.57
2018-02-14T02:55:38.797Z,13.47
2018-02-14T02:58:07.108Z,12.10
2018-02-14T03:00:34.797Z,11.90
2018-02-14T03:03:03.218Z,13.90
2018-02-14T03:05:30.786Z,12.47
2018-02-14T03:07:58.336Z,15.50
2018-02-14T03:10:25.902Z,13.43
2018-02-14T03:12:54.245Z,15.87
2018-02-14T03:15:21.794Z,15.93
2018-02-14T03:17:49.403Z,13.20
2018-02-14T03:20:16.943Z,13.93
2018-02-14T03:22:44.666Z,14.07
2018-02-14T03:25:12.353Z,13.17
2018-02-14T03:27:39.934Z,14.77
2018-02-14T03:30:08.261Z,16.77
2018-02-14T03:32:35.872Z,12.60
2018-02-14T03:35:03.440Z,15.00
2018-02-14T03:37:30.977Z,15.20
2018-02-14T03:39:58.748Z,12.40
2018-02-14T03:42:26.286Z,12.13
2018-02-14T03:44:53.862Z,13.60
2018-02-14T03:47:22.279Z,12.60
2018-02-14T03:49:49.819Z,11.43
2018-02-14T03:52:17.391Z,12.73
2018-02-14T03:54:45.176Z,15.37
2018-02-14T03:57:13.523Z,14.17
2018-02-14T03:59:41.877Z,14.30
2018-02-14T04:02:09.545Z,11.77
2018-02-14T04:04:37.894Z,13.20
2018-02-14T04:07:06.236Z,11.30
2018-02-14T04:09:33.802Z,9.80
2018-02-14T04:12:02.099Z,9.00
2018-02-14T04:14:29.642Z,11.87
2018-02-14T04:16:57.668Z,8.70
2018-02-14T04:19:26.006Z,10.27
2018-02-14T04:21:53.547Z,11.17
2018-02-14T04:24:21.240Z,8.67
2018-02-14T04:26:48.717Z,13.30
2018-02-14T04:29:16.293Z,10.60
2018-02-14T04:31:43.899Z,12.93
2018-02-14T04:34:12.182Z,9.17
2018-02-14T04:36:39.742Z,11.70
2018-02-14T04:39:08.204Z,9.17
2018-02-14T04:41:35.747Z,13.33
2018-02-14T04:44:03.280Z,12.33
2018-02-14T04:46:31.223Z,11.70
2018-02-14T04:48:58.796Z,11.10
2018-02-14T04:51:27.105Z,10.70
2018-02-14T04:53:54.984Z,13.83
2018-02-14T04:56:22.568Z,11.90
2018-02-14T04:58:50.111Z,13.47
2018-02-14T05:01:17.752Z,16.20
2018-02-14T05:03:46.093Z,15.10
2018-02-14T05:06:13.639Z,14.37
2018-02-14T05:08:41.412Z,18.50
2018-02-14T05:11:08.955Z,16.97
2018-02-14T05:13:36.528Z,13.97
2018-02-14T05:16:04.104Z,13.93
2018-02-14T05:18:31.690Z,11.83
2018-02-14T05:20:59.243Z,12.30
2018-02-14T05:23:27.080Z,15.13
2018-02-14T05:25:54.672Z,11.03
2018-02-14T05:28:22.247Z,16.13
2018-02-14T05:30:49.812Z,13.23
2018-02-14T05:33:18.164Z,13.93
2018-02-14T05:35:46.512Z,11.47
2018-02-14T05:38:14.218Z,15.33
2018-02-14T05:40:41.755Z,13.00
2018-02-14T05:43:09.340Z,13.97
2018-02-14T05:45:36.948Z,14.47
2018-02-14T05:48:04.536Z,12.90
2018-02-14T05:50:32.104Z,14.30
2018-02-14T05:53:00.715Z,12.20
2018-02-14T05:55:28.284Z,10.37
2018-02-14T05:57:55.860Z,9.53
2018-02-14T06:00:23.518Z,10.93
2018-02-14T06:02:51.096Z,10.70
2018-02-14T06:05:18.884Z,9.00
2018-02-14T06:07:47.276Z,12.77
2018-02-14T06:10:14.847Z,11.00
2018-02-14T06:12:42.416Z,9.73
2018-02-14T06:15:10.196Z,11.10
2018-02-14T06:17:38.542Z,10.03
2018-02-14T06:20:06.056Z,12.60
2018-02-14T06:22:33.624Z,12.87
2018-02-14T06:25:01.179Z,13.43
2018-02-14T06:27:28.722Z,9.77
2018-02-14T06:29:57.055Z,10.17
2018-02-14T06:32:24.640Z,12.07
2018-02-14T06:34:52.950Z,9.87
2018-02-14T06:37:20.744Z,9.60
2018-02-14T06:39:49.072Z,10.77
2018-02-14T06:42:16.615Z,16.27
2018-02-14T06:44:44.325Z,15.73
2018-02-14T06:47:11.880Z,15.23
2018-02-14T06:49:39.468Z,12.77
2018-02-14T06:52:07.319Z,13.73
2018-02-14T06:54:34.835Z,13.33
2018-02-14T06:57:02.402Z,11.53
2018-02-14T06:59:30.022Z,12.50
2018-02-14T07:01:57.597Z,12.13
2018-02-14T07:04:25.127Z,12.90
2018-02-14T07:06:52.695Z,12.70
2018-02-14T07:09:21.012Z,14.13
2018-02-14T07:11:48.585Z,16.33
2018-02-14T07:14:16.188Z,17.40
2018-02-14T07:16:43.775Z,18.90
2018-02-14T07:19:11.352Z,17.87
2018-02-14T07:21:39.666Z,19.03
2018-02-14T07:24:07.203Z,19.90
2018-02-14T07:26:34.791Z,19.70
2018-02-14T07:29:03.146Z,20.40
2018-02-14T07:31:31.488Z,18.53
2018-02-14T07:33:59.036Z,20.57
2018-02-14T07:36:26.960Z,20.97
2018-02-14T07:38:54.524Z,21.10
2018-02-14T07:41:22.101Z,18.60
2018-02-14T07:43:50.443Z,18.33
2018-02-14T07:46:17.987Z,13.17
2018-02-14T07:48:45.467Z,14.87
2018-02-14T07:51:13.300Z,13.43
2018-02-14T07:53:41.628Z,13.63
2018-02-14T07:56:09.200Z,11.17
2018-02-14T07:58:37.738Z,13.63
2018-02-14T08:01:06.085Z,12.23
2018-02-14T08:03:33.628Z,15.00
2018-02-14T08:06:01.289Z,17.00
2018-02-14T08:08:28.835Z,16.40
2018-02-14T08:10:56.379Z,17.07
2018-02-14T08:13:23.959Z,16.63
2018-02-14T08:15:52.283Z,12.43
2018-02-14T08:18:19.867Z,13.90
2018-02-14T08:20:48.287Z,14.87
2018-02-14T08:23:15.917Z,14.10
2018-02-14T08:25:43.492Z,11.70
2018-02-14T08:28:11.343Z,10.23
2018-02-14T08:30:38.933Z,12.40
2018-02-14T08:33:06.471Z,12.73
2018-02-14T08:35:34.175Z,9.63
2018-02-14T08:38:01.745Z,10.60
2018-02-14T08:40:30.055Z,12.83
2018-02-14T08:42:58.329Z,15.17
2018-02-14T08:45:25.901Z,14.07
2018-02-14T08:47:54.208Z,11.17
2018-02-14T08:50:21.804Z,10.07
2018-02-14T08:52:49.342Z,11.33
2018-02-14T08:55:16.875Z,10.07
2018-02-14T08:57:44.852Z,13.53
2018-02-14T09:00:13.210Z,13.80
2018-02-14T09:02:40.690Z,15.80
2018-02-14T09:05:08.508Z,14.67
2018-02-14T09:07:36.850Z,14.23
2018-02-14T09:10:04.389Z,16.13
2018-02-14T09:12:31.966Z,11.87
2018-02-14T09:15:00.260Z,14.77
2018-02-14T09:17:27.812Z,16.17
2018-02-14T09:19:55.438Z,15.10
2018-02-14T09:22:23.013Z,17.03
2018-02-14T09:24:50.588Z,17.10
2018-02-14T09:27:18.956Z,17.03
2018-02-14T09:29:47.259Z,18.40
2018-02-14T09:32:14.839Z,18.93
2018-02-14T09:34:42.445Z,19.27
2018-02-14T09:37:10.036Z,21.37
2018-02-14T09:39:37.612Z,20.63
2018-02-14T09:42:05.948Z,20.07
2018-02-14T09:44:33.486Z,21.47
2018-02-14T09:47:01.035Z,23.83
2018-02-14T09:49:28.581Z,22.27
2018-02-14T09:51:56.049Z,20.67
2018-02-14T09:54:24.426Z,21.30
2018-02-14T09:56:52.153Z,24.50
2018-02-14T09:59:20.483Z,26.53
2018-02-14T10:01:48.056Z,25.20
2018-02-14T10:04:15.896Z,28.77
2018-02-14T10:06:43.483Z,23.47
2018-02-14T10:09:11.047Z,25.67
2018-02-14T10:11:38.627Z,25.97
2018-02-14T10:14:06.953Z,27.70
2018-02-14T10:16:34.524Z,23.80
2018-02-14T10:19:02.242Z,25.23
2018-02-14T10:21:29.754Z,28.63
2018-02-14T10:23:57.316Z,25.67
2018-02-14T10:26:24.886Z,28.70
2018-02-14T10:28:52.461Z,26.83
2018-02-14T10:31:20.800Z,28.57
2018-02-14T10:33:48.367Z,28.33
2018-02-14T10:36:16.710Z,28.70
2018-02-14T10:38:44.258Z,28.23
2018-02-14T10:41:11.903Z,24.67
2018-02-14T10:43:39.471Z,29.43
2018-02-14T10:46:07.776Z,28.97
2018-02-14T10:48:35.423Z,28.03
2018-02-14T10:51:03.779Z,28.63
2018-02-14T10:53:31.311Z,27.43
2018-02-14T10:55:58.909Z,27.73
2018-02-14T10:58:26.484Z,33.67
2018-02-14T11:00:59.659Z,27.97
2018-02-14T11:03:32.838Z,27.73
2018-02-14T11:06:06.015Z,27.63
2018-02-14T11:08:33.690Z,30.63
2018-02-14T11:11:01.229Z,27.73
2018-02-14T11:13:28.801Z,29.43
2018-02-14T11:15:56.692Z,26.27
2018-02-14T11:18:24.273Z,24.57
2018-02-14T11:20:51.845Z,27.57
2018-02-14T11:23:19.491Z,27.17
2018-02-14T11:25:47.039Z,27.17
2018-02-14T11:28:14.612Z,27.90
2018-02-14T11:30:42.279Z,25.03
2018-02-14T11:33:09.857Z,26.33
2018-02-14T11:35:37.358Z,29.53
2018-02-14T11:38:04.853Z,26.20
2018-02-14T11:40:32.444Z,25.90
2018-02-14T11:42:59.979Z,24.53
2018-02-14T11:45:27.883Z,24.87
2018-02-14T11:47:55.410Z,26.23
2018-02-14T11:50:22.985Z,25.60
2018-02-14T11:52:50.728Z,24.00
2018-02-14T11:55:18.260Z,28.43
2018-02-14T11:57:46.594Z,24.00
2018-02-14T12:00:14.346Z,23.77
2018-02-14T12:02:41.867Z,22.70
2018-02-14T12:05:09.432Z,20.93
2018-02-14T12:07:37.208Z,23.53
2018-02-14T12:10:04.755Z,19.93
2018-02-14T12:12:32.279Z,19.23
2018-02-14T12:15:00.051Z,19.80
2018-02-14T12:17:27.590Z,16.90
2018-02-14T12:19:55.161Z,19.83
2018-02-14T12:22:23.521Z,17.10
2018-02-14T12:24:51.860Z,17.60
2018-02-14T12:27:19.395Z,19.83
2018-02-14T12:29:46.996Z,20.73
2018-02-14T12:32:14.748Z,19.83
2018-02-14T12:34:42.298Z,17.93
2018-02-14T12:37:10.088Z,18.20
2018-02-14T12:39:37.668Z,20.67
2018-02-14T12:42:05.966Z,18.57
2018-02-14T12:44:33.843Z,20.43
2018-02-14T12:47:01.420Z,18.50
2018-02-14T12:49:28.967Z,18.17
2018-02-14T12:51:57.296Z,16.50
2018-02-14T12:54:24.834Z,18.93
2018-02-14T12:56:52.401Z,19.83
2018-02-14T12:59:20.774Z,20.67
2018-02-14T13:01:49.118Z,17.20
2018-02-14T13:04:16.593Z,18.60
2018-02-14T13:06:44.343Z,20.57
2018-02-14T13:09:11.856Z,18.67
2018-02-14T13:11:39.391Z,18.17
2018-02-14T13:14:06.996Z,19.93
2018-02-14T13:16:34.564Z,20.90
2018-02-14T13:19:02.107Z,18.33
2018-02-14T13:21:29.679Z,18.80
2018-02-14T13:23:58.024Z,20.53
2018-02-14T13:26:25.567Z,20.67
2018-02-14T13:28:53.176Z,18.80
2018-02-14T13:31:20.720Z,20.67
2018-02-14T13:33:48.301Z,18.93
2018-02-14T13:36:15.859Z,21.63
2018-02-14T13:38:43.433Z,18.17
2018-02-14T13:41:10.971Z,17.93
2018-02-14T13:43:38.580Z,16.73
2018-02-14T13:46:06.114Z,18.77
2018-02-14T13:48:34.419Z,17.27
2018-02-14T13:51:02.022Z,18.43
2018-02-14T13:53:30.358Z,17.33
2018-02-14T13:55:57.891Z,17.73
2018-02-14T13:58:25.576Z,16.70
2018-02-14T14:00:53.916Z,21.33
2018-02-14T14:03:21.467Z,21.57
2018-02-14T14:05:49.925Z,19.67
2018-02-14T14:08:17.452Z,18.20
2018-02-14T14:10:45.025Z,19.53
2018-02-14T14:13:13.404Z,18.33
2018-02-14T14:15:40.966Z,18.13
2018-02-14T14:18:08.507Z,17.80
2018-02-14T14:20:36.083Z,17.30
2018-02-14T14:23:03.649Z,16.27
2018-02-14T14:25:31.180Z,15.13
2018-02-14T14:27:58.755Z,18.20
2018-02-14T14:30:26.315Z,18.47
2018-02-14T14:32:53.848Z,17.20
2018-02-14T14:35:22.171Z,16.50
2018-02-14T14:37:49.696Z,16.97
2018-02-14T14:40:17.211Z,14.93
2018-02-14T14:42:45.149Z,16.70
2018-02-14T14:45:13.484Z,17.07
2018-02-14T14:47:40.990Z,15.00
2018-02-14T14:50:08.676Z,15.73
2018-02-14T14:52:36.160Z,14.50
2018-02-14T14:55:03.696Z,16.37
2018-02-14T14:57:31.268Z,14.93
2018-02-14T14:59:58.798Z,14.20
2018-02-14T15:02:26.340Z,15.10
2018-02-14T15:04:53.995Z,16.17
2018-02-14T15:07:21.576Z,15.20
2018-02-14T15:09:49.374Z,13.73
2018-02-14T15:12:16.910Z,14.87
2018-02-14T15:14:45.203Z,13.60
2018-02-14T15:17:12.778Z,12.60
2018-02-14T15:19:40.380Z,14.00
2018-02-14T15:22:08.812Z,12.93
2018-02-14T15:24:36.343Z,12.87
2018-02-14T15:27:04.237Z,14.10
2018-02-14T15:29:32.571Z,14.37
2018-02-14T15:32:00.107Z,12.43
2018-02-14T15:34:28.075Z,14.40
2018-02-14T15:36:56.420Z,14.43
2018-02-14T15:39:24.068Z,17.20
2018-02-14T15:41:51.696Z,19.43
2018-02-14T15:44:19.267Z,17.13
2018-02-14T15:46:46.849Z,23.63
2018-02-14T15:49:14.504Z,17.70
2018-02-14T15:51:42.035Z,17.60
2018-02-14T15:54:09.641Z,14.50
2018-02-14T15:56:37.250Z,12.77
2018-02-14T15:59:04.855Z,13.53
2018-02-14T16:01:32.429Z,16.43
2018-02-14T16:04:00.009Z,14.40
2018-02-14T16:06:27.547Z,13.53
2018-02-14T16:08:55.321Z,13.93
2018-02-14T16:11:22.887Z,14.40
2018-02-14T16:13:51.198Z,13.73
2018-02-14T16:16:18.735Z,13.27
2018-02-14T16:18:46.415Z,15.57
2018-02-14T16:21:13.990Z,13.43
2018-02-14T16:23:42.300Z,13.63
2018-02-14T16:26:09.870Z,14.63
2018-02-14T16:28:37.404Z,19.50
2018-02-14T16:31:04.938Z,16.97
2018-02-14T16:33:32.514Z,31.03
2018-02-14T16:36:00.828Z,29.03
2018-02-14T16:38:28.379Z,23.47
2018-02-14T16:40:55.989Z,23.53
2018-02-14T16:43:23.574Z,21.10
2018-02-14T16:45:51.912Z,20.83
2018-02-14T16:48:19.512Z,15.20
2018-02-14T16:50:46.990Z,15.77
2018-02-14T16:53:15.321Z,15.47
2018-02-14T16:55:42.903Z,17.87
2018-02-14T16:58:10.443Z,17.23
2018-02-14T17:00:37.971Z,19.80
2018-02-14T17:03:05.532Z,20.17
2018-02-14T17:05:33.115Z,17.60
2018-02-14T17:08:00.716Z,18.87
2018-02-14T17:10:28.321Z,19.10
2018-02-14T17:12:55.892Z,19.03
2018-02-14T17:15:23.440Z,16.77
2018-02-14T17:17:51.007Z,18.30
2018-02-14T17:20:19.343Z,16.50
2018-02-14T17:22:46.893Z,17.43
2018-02-14T17:25:14.547Z,19.70
2018-02-14T17:27:42.092Z,17.33
2018-02-14T17:30:10.440Z,17.20
2018-02-14T17:32:38.425Z,20.30
2018-02-14T17:35:05.975Z,16.03
2018-02-14T17:37:33.511Z,15.83
2018-02-14T17:40:02.039Z,19.20
2018-02-14T17:42:29.579Z,19.43
2018-02-14T17:44:57.111Z,24.73
2018-02-14T17:47:24.867Z,22.03
2018-02-14T17:49:52.399Z,20.00
2018-02-14T17:52:19.969Z,20.10
2018-02-14T17:54:47.485Z,19.77
2018-02-14T17:57:14.990Z,19.37
2018-02-14T17:59:43.292Z,19.43
2018-02-14T18:02:10.887Z,19.53
2018-02-14T18:04:39.228Z,24.53
2018-02-14T18:07:06.800Z,26.57
2018-02-14T18:09:35.456Z,22.80
2018-02-14T18:12:03.804Z,21.13
2018-02-14T18:14:31.385Z,21.23
2018-02-14T18:16:59.021Z,17.77
2018-02-14T18:19:26.608Z,21.57
2018-02-14T18:21:54.156Z,20.60
2018-02-14T18:24:21.816Z,20.97
2018-02-14T18:26:49.360Z,20.60
2018-02-14T18:29:16.931Z,18.67
2018-02-14T18:31:45.412Z,19.07
2018-02-14T18:34:12.998Z,22.93
2018-02-14T18:36:40.539Z,18.40
2018-02-14T18:39:08.109Z,18.53
2018-02-14T18:41:35.680Z,19.47
2018-02-14T18:44:03.992Z,16.90
2018-02-14T18:46:31.620Z,23.93
2018-02-14T18:48:59.217Z,19.87
2018-02-14T18:51:27.510Z,20.00
2018-02-14T18:53:55.164Z,17.40
2018-02-14T18:56:22.745Z,23.47
2018-02-14T18:58:50.430Z,22.67
2018-02-14T19:01:18.339Z,17.93
2018-02-14T19:03:45.887Z,15.30
2018-02-14T19:06:14.142Z,17.37
2018-02-14T19:08:42.040Z,14.23
2018-02-14T19:11:10.386Z,20.23
2018-02-14T19:13:38.697Z,16.77
2018-02-14T19:16:06.352Z,18.70
2018-02-14T19:18:33.857Z,16.53
2018-02-14T19:21:02.159Z,17.23
2018-02-14T19:23:29.861Z,19.23
2018-02-14T19:25:57.407Z,19.93
2018-02-14T19:28:24.997Z,23.70
2018-02-14T19:30:52.568Z,15.80
2018-02-14T19:33:20.146Z,17.73
2018-02-14T19:35:47.629Z,18.27
2018-02-14T19:38:15.316Z,19.73
2018-02-14T19:40:43.760Z,21.00
2018-02-14T19:43:11.296Z,17.43
2018-02-14T19:45:39.248Z,18.37
2018-02-14T19:48:06.732Z,17.23
2018-02-14T19:50:35.072Z,19.03
2018-02-14T19:53:02.643Z,14.50
2018-02-14T19:55:30.225Z,15.10
2018-02-14T19:57:57.806Z,16.27
2018-02-14T20:00:26.392Z,20.37
2018-02-14T20:02:54.736Z,16.53
2018-02-14T20:05:22.210Z,17.87
2018-02-14T20:07:49.805Z,18.77
2018-02-14T20:10:17.384Z,18.43
2018-02-14T20:12:45.728Z,25.07
2018-02-14T20:15:13.339Z,48.13
2018-02-14T20:17:40.916Z,44.77
2018-02-14T20:20:08.457Z,25.73
2018-02-14T20:22:36.060Z,19.73
2018-02-14T20:25:03.615Z,22.33
2018-02-14T20:27:31.159Z,15.90
2018-02-14T20:29:58.957Z,16.00
2018-02-14T20:32:27.287Z,18.80
2018-02-14T20:34:54.868Z,15.63
2018-02-14T20:37:22.451Z,16.53
2018-02-14T20:39:49.999Z,15.17
2018-02-14T20:42:17.552Z,14.93
2018-02-14T20:44:45.167Z,19.23
2018-02-14T20:47:12.768Z,17.93
2018-02-14T20:49:40.246Z,15.07
2018-02-14T20:52:08.099Z,15.73
2018-02-14T20:54:35.619Z,15.53
2018-02-14T20:57:03.987Z,16.07
2018-02-14T20:59:32.519Z,15.13
2018-02-14T21:02:00.096Z,15.40
2018-02-14T21:04:28.405Z,14.20
2018-02-14T21:06:56.053Z,13.47
2018-02-14T21:09:23.604Z,19.50
2018-02-14T21:11:51.147Z,14.30
2018-02-14T21:14:18.909Z,16.17
2018-02-14T21:16:46.500Z,14.73
2018-02-14T21:19:14.077Z,15.20
2018-02-14T21:21:42.435Z,15.23
2018-02-14T21:24:09.960Z,15.80
2018-02-14T21:26:38.238Z,15.73
2018-02-14T21:29:06.047Z,16.07
2018-02-14T21:31:34.392Z,13.50
2018-02-14T21:34:01.935Z,13.30
2018-02-14T21:36:30.272Z,15.50
2018-02-14T21:38:57.857Z,18.47
2018-02-14T21:41:26.200Z,14.93
2018-02-14T21:43:53.779Z,23.03
2018-02-14T21:46:21.257Z,19.83
2018-02-14T21:48:48.778Z,18.77
2018-02-14T21:51:16.464Z,18.87
2018-02-14T21:53:44.004Z,19.57
2018-02-14T21:56:11.588Z,21.50
2018-02-14T21:58:39.166Z,18.20
2018-02-14T22:01:06.704Z,15.57
2018-02-14T22:03:34.252Z,16.93
2018-02-14T22:06:02.108Z,20.97
2018-02-14T22:08:29.652Z,19.13
2018-02-14T22:10:57.218Z,20.90
2018-02-14T22:13:24.906Z,18.30
2018-02-14T22:15:53.211Z,19.30
2018-02-14T22:18:20.800Z,15.47
2018-02-14T22:20:49.150Z,16.50
2018-02-14T22:23:16.687Z,15.23
2018-02-14T22:25:44.269Z,14.93
2018-02-14T22:28:11.880Z,14.87
2018-02-14T22:30:39.423Z,21.57
2018-02-14T22:33:07.004Z,20.90
2018-02-14T22:35:34.832Z,19.53
2018-02-14T22:38:02.387Z,20.40
2018-02-14T22:40:29.965Z,24.93
2018-02-14T22:42:57.514Z,22.87
2018-02-14T22:45:25.336Z,23.33
2018-02-14T22:47:52.922Z,23.27
2018-02-14T22:50:20.525Z,19.63
2018-02-14T22:52:48.067Z,19.57
2018-02-14T22:55:15.647Z,22.40
2018-02-14T22:57:43.323Z,19.80
2018-02-14T23:00:10.854Z,21.73
2018-02-14T23:02:38.379Z,24.77
2018-02-14T23:05:06.831Z,19.20
2018-02-14T23:07:34.382Z,19.43
2018-02-14T23:10:01.961Z,25.07
2018-02-14T23:12:29.667Z,23.67
2018-02-14T23:14:57.202Z,22.60
2018-02-14T23:17:24.785Z,22.03
2018-02-14T23:19:52.383Z,22.90
2018-02-14T23:22:19.963Z,22.77
2018-02-14T23:24:47.553Z,20.23
2018-02-14T23:27:16.080Z,22.30
2018-02-14T23:29:43.623Z,21.73
2018-02-14T23:32:11.180Z,20.27
2018-02-14T23:34:38.957Z,26.77
2018-02-14T23:37:07.258Z,24.20
2018-02-14T23:39:34.832Z,28.37
2018-02-14T23:42:02.487Z,22.57
2018-02-14T23:44:30.027Z,21.27
2018-02-14T23:46:57.621Z,24.63
2018-02-14T23:49:26.240Z,22.60
2018-02-14T23:51:53.717Z,20.70
2018-02-14T23:54:21.299Z,23.00
2018-02-14T23:56:49.093Z,20.50
2018-02-14T23:59:17.430Z,19.97
